Time;durP1;ratioP1;P1;durP2;ratioP2;P2;SDS_P1;SDS_P2;PMS_P1;PMS_P2;Temp;Humidity;BMP_temperature;BMP_pressure;BME280_temperature;BME280_humidity;BME280_pressure;Samples;Min_cycle;Max_cycle;Signal;HPM_P1;HPM_P2
2023/12/01 00:01:19;;;;;;;1.90;1.10;;;-1.20;35.90;;;;;;5022589;28;20046;-75
2023/12/01 00:03:48;;;;;;;2.13;1.35;;;-1.20;63.10;;;;;;5016284;28;20050;-72
2023/12/01 00:06:15;;;;;;;2.60;1.42;;;-1.20;1.00;;;;;;5022612;28;20100;-75
2023/12/01 00:08:42;;;;;;;1.45;0.98;;;-1.20;99.30;;;;;;5020638;28;20141;-75
2023/12/01 00:11:09;;;;;;;1.60;1.10;;;-1.20;34.60;;;;;;5019181;28;20048;-75
2023/12/01 00:13:35;;;;;;;1.45;1.00;;;-1.20;1.00;;;;;;5019704;28;20103;-75
2023/12/01 00:16:04;;;;;;;1.33;0.93;;;-1.20;99.90;;;;;;5017309;28;20045;-72
2023/12/01 00:18:31;;;;;;;1.33;1.00;;;-1.30;72.20;;;;;;5020274;28;20060;-75
2023/12/01 00:20:58;;;;;;;1.20;0.70;;;-1.30;99.90;;;;;;4988523;28;20045;-75
2023/12/01 00:23:25;;;;;;;1.48;0.73;;;-1.30;98.10;;;;;;5021923;28;20068;-75
2023/12/01 00:25:52;;;;;;;0.65;0.60;;;-1.30;99.90;;;;;;5003805;28;20552;-74
2023/12/01 00:28:19;;;;;;;1.35;0.70;;;-1.30;62.50;;;;;;5020955;28;20049;-75
2023/12/01 00:30:46;;;;;;;0.70;0.70;;;-1.30;1.00;;;;;;5010121;28;20498;-75
2023/12/01 00:33:12;;;;;;;1.08;0.70;;;-1.40;67.60;;;;;;5005992;28;20499;-76
2023/12/01 00:35:40;;;;;;;1.05;0.70;;;-1.40;64.30;;;;;;5020308;28;20135;-75
2023/12/01 00:38:07;;;;;;;1.23;0.80;;;-1.40;99.90;;;;;;5019900;28;20053;-75
2023/12/01 00:40:34;;;;;;;0.85;0.60;;;-1.40;99.90;;;;;;5022058;28;20095;-75
2023/12/01 00:43:01;;;;;;;1.40;0.93;;;-1.40;99.90;;;;;;5019432;28;20422;-75
2023/12/01 00:45:28;;;;;;;1.58;1.08;;;-1.40;99.90;;;;;;5022226;28;20072;-75
2023/12/01 00:47:55;;;;;;;1.13;0.80;;;-1.40;99.90;;;;;;5020982;28;20475;-75
2023/12/01 00:50:22;;;;;;;1.05;0.95;;;-1.40;99.90;;;;;;5004333;28;20049;-74
2023/12/01 00:52:49;;;;;;;1.17;0.88;;;-1.50;99.90;;;;;;5019442;28;20051;-75
2023/12/01 00:55:16;;;;;;;1.50;0.80;;;-1.50;91.40;;;;;;5018936;28;20046;-75
2023/12/01 00:57:43;;;;;;;1.10;0.82;;;-1.50;54.90;;;;;;5014818;28;21434;-74
2023/12/01 01:00:10;;;;;;;1.85;1.02;;;-1.50;1.00;;;;;;5045972;28;20522;-75
2023/12/01 01:02:37;;;;;;;1.77;0.90;;;-1.50;1.00;;;;;;5020562;28;20449;-75
2023/12/01 01:05:05;;;;;;;1.25;0.73;;;-1.60;99.90;;;;;;5020117;28;20050;-75
2023/12/01 01:07:32;;;;;;;1.33;0.90;;;-1.60;86.00;;;;;;5002577;28;20057;-74
2023/12/01 01:09:59;;;;;;;1.58;0.82;;;-1.70;1.00;;;;;;5006670;28;20054;-75
2023/12/01 01:12:26;;;;;;;1.50;0.98;;;-1.70;55.60;;;;;;4990407;28;20050;-75
2023/12/01 01:14:52;;;;;;;1.17;0.90;;;-1.70;1.00;;;;;;5018998;28;20041;-75
2023/12/01 01:17:19;;;;;;;1.13;0.82;;;-1.80;1.00;;;;;;5021909;28;20694;-75
2023/12/01 01:19:46;;;;;;;0.95;0.80;;;-1.80;1.00;;;;;;5015902;28;20049;-74
2023/12/01 01:22:13;;;;;;;1.50;0.90;;;-1.80;1.00;;;;;;5021714;28;20283;-75
2023/12/01 01:24:41;;;;;;;1.10;0.88;;;-1.80;1.00;;;;;;5015721;28;20045;-74
2023/12/01 01:27:08;;;;;;;1.83;0.80;;;-1.80;99.90;;;;;;5012750;28;20136;-75
2023/12/01 01:29:35;;;;;;;1.27;0.82;;;-1.90;99.90;;;;;;5021031;28;20087;-74
2023/12/01 01:32:02;;;;;;;1.23;0.90;;;-1.90;99.90;;;;;;5021439;28;20053;-75
2023/12/01 01:34:30;;;;;;;1.63;0.88;;;-1.90;99.90;;;;;;5019266;28;20141;-75
2023/12/01 01:36:57;;;;;;;0.85;0.70;;;-1.90;1.00;;;;;;4987227;28;20061;-75
2023/12/01 01:39:24;;;;;;;1.00;0.68;;;-1.90;99.90;;;;;;4986317;28;20783;-74
2023/12/01 01:41:51;;;;;;;1.77;0.88;;;-1.90;1.00;;;;;;5019862;28;20410;-74
2023/12/01 01:44:18;;;;;;;2.15;1.27;;;-1.90;99.90;;;;;;5021278;28;20061;-73
2023/12/01 01:46:46;;;;;;;1.30;0.70;;;-1.90;99.90;;;;;;5019514;28;20483;-73
2023/12/01 01:49:14;;;;;;;1.60;1.08;;;-2.00;99.90;;;;;;5019928;28;20053;-73
2023/12/01 01:51:41;;;;;;;1.02;0.80;;;-2.00;99.90;;;;;;5010220;28;20052;-73
2023/12/01 01:54:08;;;;;;;1.23;0.80;;;-2.00;99.90;;;;;;5016538;28;20055;-74
2023/12/01 01:56:34;;;;;;;1.58;0.70;;;-2.00;68.70;;;;;;5012169;28;20107;-73
2023/12/01 01:59:01;;;;;;;1.55;1.30;;;-2.10;99.90;;;;;;5017015;28;20060;-74
2023/12/01 02:01:29;;;;;;;1.05;0.65;;;-2.10;27.60;;;;;;5018664;28;20095;-74
2023/12/01 02:03:56;;;;;;;1.77;1.48;;;-2.10;35.30;;;;;;5003790;28;20059;-73
2023/12/01 02:06:30;;;;;;;1.67;1.13;;;-2.10;1.00;;;;;;5018766;28;20053;-74
2023/12/01 02:08:58;;;;;;;1.17;0.80;;;-2.20;1.00;;;;;;4980241;28;20045;-74
2023/12/01 02:11:26;;;;;;;1.90;0.90;;;-2.20;1.00;;;;;;5019542;28;20650;-74
2023/12/01 02:13:53;;;;;;;2.75;1.58;;;-2.20;1.00;;;;;;5019122;28;20053;-74
2023/12/01 02:16:20;;;;;;;1.98;1.00;;;-2.20;99.90;;;;;;5019131;28;20041;-73
2023/12/01 02:18:48;;;;;;;2.05;1.30;;;-2.20;99.90;;;;;;5003146;28;20064;-73
2023/12/01 02:21:15;;;;;;;1.17;0.80;;;-2.20;99.90;;;;;;5010030;28;20115;-73
2023/12/01 02:23:44;;;;;;;1.08;0.60;;;-2.20;1.00;;;;;;5006262;28;20052;-74
2023/12/01 02:26:13;;;;;;;1.83;1.00;;;-2.30;99.90;;;;;;5002896;28;20045;-76
2023/12/01 02:28:41;;;;;;;0.80;0.70;;;-2.30;99.90;;;;;;5019168;28;20107;-75
2023/12/01 02:31:07;;;;;;;1.52;0.88;;;-2.30;99.90;;;;;;5020190;28;20495;-76
2023/12/01 02:33:35;;;;;;;1.08;0.60;;;-2.30;99.90;;;;;;5018119;28;20058;-75
2023/12/01 02:36:04;;;;;;;1.38;0.75;;;-2.30;99.90;;;;;;4988667;28;20449;-77
2023/12/01 02:38:31;;;;;;;1.00;0.70;;;-2.30;99.90;;;;;;5015522;28;20073;-76
2023/12/01 02:40:58;;;;;;;1.60;1.05;;;-2.40;99.90;;;;;;5017802;28;20049;-76
2023/12/01 02:43:25;;;;;;;1.73;0.80;;;-2.40;99.90;;;;;;5019935;28;20049;-75
2023/12/01 02:45:52;;;;;;;1.42;1.08;;;-2.40;99.90;;;;;;5025347;28;20131;-75
2023/12/01 02:48:18;;;;;;;1.40;0.70;;;-2.40;99.90;;;;;;5017884;28;20659;-78
2023/12/01 02:50:45;;;;;;;1.48;0.80;;;-2.40;99.90;;;;;;5001788;28;20081;-76
2023/12/01 02:53:12;;;;;;;1.35;0.82;;;-2.40;1.00;;;;;;5023906;28;20222;-75
2023/12/01 02:55:39;;;;;;;1.40;1.00;;;-2.40;1.00;;;;;;5022861;28;20046;-75
2023/12/01 02:58:06;;;;;;;1.20;0.90;;;-2.40;1.00;;;;;;5025772;28;20457;-75
2023/12/01 03:00:33;;;;;;;2.28;1.13;;;-2.40;1.00;;;;;;4991911;28;20081;-73
2023/12/01 03:03:01;;;;;;;1.10;0.90;;;-2.40;99.90;;;;;;5024402;28;20045;-73
2023/12/01 03:05:28;;;;;;;1.42;0.80;;;-2.40;99.90;;;;;;5024911;28;20053;-73
2023/12/01 03:07:54;;;;;;;2.13;1.05;;;-2.40;99.90;;;;;;5023686;28;20083;-73
2023/12/01 03:10:23;;;;;;;1.92;1.10;;;-2.40;99.90;;;;;;5006994;28;20123;-73
2023/12/01 03:12:50;;;;;;;0.80;0.77;;;-2.50;99.90;;;;;;5025465;28;20056;-73
2023/12/01 03:15:19;;;;;;;1.38;0.80;;;-2.50;99.90;;;;;;5024152;28;20146;-75
2023/12/01 03:17:49;;;;;;;1.58;0.90;;;-2.50;99.90;;;;;;5024404;28;20089;-73
2023/12/01 03:20:16;;;;;;;2.20;1.38;;;-2.50;99.90;;;;;;5025344;28;20472;-73
2023/12/01 03:22:45;;;;;;;0.73;0.60;;;-2.50;99.90;;;;;;5018718;28;20049;-73
2023/12/01 03:25:12;;;;;;;1.15;0.70;;;-2.50;99.90;;;;;;5006312;28;20059;-74
2023/12/01 03:27:40;;;;;;;1.30;0.82;;;-2.50;99.90;;;;;;5016876;28;20053;-74
2023/12/01 03:30:13;;;;;;;1.33;1.15;;;-2.50;99.90;;;;;;5017175;28;20136;-73
2023/12/01 03:32:48;;;;;;;1.13;0.73;;;-2.50;99.90;;;;;;5022238;28;20045;-73
2023/12/01 03:35:17;;;;;;;1.25;0.80;;;-2.50;92.30;;;;;;5024308;28;20878;-73
2023/12/01 03:37:44;;;;;;;1.52;0.82;;;-2.60;99.60;;;;;;5023861;28;20049;-73
2023/12/01 03:40:14;;;;;;;1.10;1.00;;;-2.60;99.90;;;;;;5022117;28;20063;-73
2023/12/01 03:42:45;;;;;;;1.42;0.70;;;-2.60;99.90;;;;;;5025401;28;20450;-74
2023/12/01 03:45:12;;;;;;;1.23;0.82;;;-2.60;91.30;;;;;;5024769;28;20072;-74
2023/12/01 03:47:41;;;;;;;1.10;0.80;;;-2.60;33.30;;;;;;5023089;28;20046;-73
2023/12/01 03:50:14;;;;;;;1.60;1.00;;;-2.60;99.90;;;;;;5006701;28;20049;-73
2023/12/01 03:52:42;;;;;;;1.00;0.77;;;-2.60;99.90;;;;;;5006729;28;20392;-73
2023/12/01 03:55:10;;;;;;;1.75;0.70;;;-2.60;99.90;;;;;;4989676;28;20490;-73
2023/12/01 03:57:37;;;;;;;1.17;0.88;;;-2.60;98.50;;;;;;5005616;28;20466;-74
2023/12/01 04:00:08;;;;;;;1.15;0.80;;;-2.60;92.20;;;;;;4988994;28;20397;-74
2023/12/01 04:02:40;;;;;;;1.30;0.88;;;-2.50;99.90;;;;;;5007466;28;20045;-74
2023/12/01 04:05:08;;;;;;;1.13;0.70;;;-2.50;99.90;;;;;;5021011;28;20045;-74
2023/12/01 04:07:35;;;;;;;0.70;0.70;;;-2.50;99.90;;;;;;5005090;28;20045;-74
2023/12/01 04:10:10;;;;;;;1.50;0.88;;;-2.50;99.90;;;;;;5006425;28;20555;-74
2023/12/01 04:12:44;;;;;;;1.88;0.93;;;-2.60;1.00;;;;;;5021513;28;20411;-74
2023/12/01 04:15:15;;;;;;;1.52;0.88;;;-2.60;21.10;;;;;;5007400;28;20190;-74
2023/12/01 04:17:42;;;;;;;1.38;1.02;;;-2.60;80.70;;;;;;5007077;28;20045;-74
2023/12/01 04:20:25;;;;;;;0.77;0.77;;;-2.60;71.50;;;;;;4990760;28;20059;-74
2023/12/01 04:22:55;;;;;;;1.05;0.73;;;-2.60;99.90;;;;;;5003206;28;20041;-74
2023/12/01 04:25:22;;;;;;;1.33;0.90;;;-2.60;99.90;;;;;;5022084;28;20198;-74
2023/12/01 04:27:50;;;;;;;1.30;0.80;;;-2.60;92.90;;;;;;5007132;28;20132;-74
2023/12/01 04:30:17;;;;;;;1.08;0.57;;;-2.70;12.80;;;;;;5024647;28;20053;-74
2023/12/01 04:32:47;;;;;;;0.70;0.60;;;-2.70;11.00;;;;;;5022834;28;20140;-74
2023/12/01 04:35:15;;;;;;;1.55;0.90;;;-2.70;1.00;;;;;;5020620;28;20368;-74
2023/12/01 04:37:42;;;;;;;1.23;1.00;;;-2.70;48.00;;;;;;5049587;28;20061;-73
2023/12/01 04:40:14;;;;;;;0.90;0.70;;;-2.80;1.00;;;;;;5014702;28;20462;-73
2023/12/01 04:42:46;;;;;;;1.10;0.90;;;-2.70;95.30;;;;;;5021493;28;20506;-74
2023/12/01 04:45:15;;;;;;;0.95;0.80;;;-2.70;99.90;;;;;;5005956;28;20045;-73
2023/12/01 04:47:42;;;;;;;0.98;0.70;;;-2.70;99.90;;;;;;4990533;28;20471;-73
2023/12/01 04:50:14;;;;;;;0.85;0.60;;;-2.70;99.90;;;;;;5022568;28;20124;-73
2023/12/01 04:52:45;;;;;;;1.42;0.77;;;-2.60;99.90;;;;;;4994930;28;20077;-73
2023/12/01 04:55:14;;;;;;;3.22;0.90;;;-2.50;99.90;;;;;;4989105;28;20047;-74
2023/12/01 04:57:41;;;;;;;0.82;0.65;;;-2.50;99.90;;;;;;4989954;28;20049;-73
2023/12/01 05:00:19;;;;;;;1.10;0.70;;;-2.40;1.00;;;;;;5005694;28;20046;-74
2023/12/01 05:02:56;;;;;;;0.80;0.68;;;-2.30;1.00;;;;;;5021593;28;20049;-73
2023/12/01 05:05:24;;;;;;;1.45;1.00;;;-2.20;1.00;;;;;;5005860;28;20049;-73
2023/12/01 05:07:57;;;;;;;2.00;1.15;;;-2.10;1.00;;;;;;4989122;28;20096;-73
2023/12/01 05:10:25;;;;;;;1.30;1.00;;;-2.00;99.90;;;;;;5005930;28;20076;-73
2023/12/01 05:13:14;;;;;;;1.80;0.93;;;-1.90;99.90;;;;;;5022296;28;20710;-73
2023/12/01 05:15:41;;;;;;;1.65;1.00;;;-1.80;99.90;;;;;;5022060;28;20798;-73
2023/12/01 05:18:11;;;;;;;1.10;0.77;;;-1.70;99.90;;;;;;4989643;28;20045;-74
2023/12/01 05:20:39;;;;;;;1.42;1.05;;;-1.60;1.00;;;;;;5020104;28;20049;-74
2023/12/01 05:23:09;;;;;;;1.55;1.05;;;-1.50;1.00;;;;;;4989207;28;20076;-73
2023/12/01 05:25:38;;;;;;;2.00;1.30;;;-1.40;1.00;;;;;;4989360;28;20128;-74
2023/12/01 05:28:05;;;;;;;2.38;1.50;;;-1.30;99.90;;;;;;5007832;28;20080;-74
2023/12/01 05:30:34;;;;;;;2.13;1.58;;;-1.30;1.00;;;;;;5014121;28;20073;-74
2023/12/01 05:33:04;;;;;;;3.60;2.22;;;-1.10;1.00;;;;;;4989456;28;20056;-73
2023/12/01 05:35:33;;;;;;;2.60;1.73;;;-1.10;99.90;;;;;;4990065;28;20111;-73
2023/12/01 05:38:00;;;;;;;2.97;2.20;;;-1.00;99.90;;;;;;5003487;28;20218;-73
2023/12/01 05:40:35;;;;;;;3.50;2.40;;;-0.80;19.20;;;;;;5018246;28;20073;-74
2023/12/01 05:43:03;;;;;;;4.43;2.85;;;-0.70;99.90;;;;;;5021246;28;20498;-73
2023/12/01 05:45:35;;;;;;;4.90;3.50;;;-0.60;1.00;;;;;;5005335;28;20406;-74
2023/12/01 05:48:03;;;;;;;5.57;3.70;;;-0.60;25.10;;;;;;5005256;28;20041;-74
2023/12/01 05:50:31;;;;;;;5.60;3.58;;;-0.50;99.90;;;;;;5041375;28;20057;-74
2023/12/01 05:52:59;;;;;;;4.15;3.03;;;-0.40;99.90;;;;;;5001117;28;20240;-73
2023/12/01 05:55:30;;;;;;;6.93;4.00;;;-0.40;99.90;;;;;;5004391;28;20076;-74
2023/12/01 05:58:10;;;;;;;4.57;3.30;;;-0.30;99.90;;;;;;5004235;28;20439;-74
2023/12/01 06:00:37;;;;;;;4.40;3.05;;;-0.30;99.90;;;;;;5019203;28;20131;-73
2023/12/01 06:03:09;;;;;;;5.05;3.70;;;-0.20;99.90;;;;;;5002661;28;20045;-74
2023/12/01 06:05:37;;;;;;;4.20;3.28;;;-0.20;99.90;;;;;;5019314;28;20045;-73
2023/12/01 06:08:04;;;;;;;4.95;3.38;;;-0.10;99.90;;;;;;5018820;28;20103;-76
2023/12/01 06:10:32;;;;;;;5.07;3.67;;;-0.10;99.90;;;;;;5002792;28;21023;-73
2023/12/01 06:13:00;;;;;;;5.60;4.22;;;-0.10;99.90;;;;;;5017944;28;20064;-74
2023/12/01 06:15:30;;;;;;;6.82;4.90;;;-0.10;99.90;;;;;;5018627;28;20053;-74
2023/12/01 06:17:58;;;;;;;7.40;5.65;;;-0.10;99.90;;;;;;5018833;28;20037;-73
2023/12/01 06:20:25;;;;;;;6.35;5.15;;;-0.10;99.90;;;;;;5002912;28;20045;-73
2023/12/01 06:22:58;;;;;;;6.55;4.75;;;-0.10;99.90;;;;;;5014734;28;20045;-74
2023/12/01 06:25:27;;;;;;;6.63;4.43;;;0.00;99.90;;;;;;5018743;28;20119;-73
2023/12/01 06:27:58;;;;;;;6.78;5.22;;;0.00;99.90;;;;;;5003202;28;20049;-75
2023/12/01 06:30:33;;;;;;;7.40;5.60;;;0.00;99.90;;;;;;5019400;28;20190;-74
2023/12/01 06:33:03;;;;;;;6.70;4.45;;;0.00;99.90;;;;;;5015967;28;20041;-74
2023/12/01 06:35:30;;;;;;;7.05;5.13;;;0.10;99.90;;;;;;5002799;28;20053;-74
2023/12/01 06:37:58;;;;;;;12.25;7.75;;;0.10;99.90;;;;;;4986557;28;20483;-74
2023/12/01 06:40:25;;;;;;;8.75;6.57;;;0.00;99.90;;;;;;5018640;28;20526;-73
2023/12/01 06:42:54;;;;;;;6.60;4.75;;;0.00;99.90;;;;;;5003138;28;20037;-74
2023/12/01 06:45:23;;;;;;;7.63;4.55;;;0.10;99.90;;;;;;4986614;28;20414;-73
2023/12/01 06:47:54;;;;;;;;;;;0.10;99.90;;;;;;5004445;28;20095;-73
2023/12/01 06:50:24;;;;;;;6.82;5.15;;;0.10;99.90;;;;;;5002641;28;19925;-73
2023/12/01 06:52:51;;;;;;;7.38;5.57;;;0.20;99.90;;;;;;5015930;28;20061;-74
2023/12/01 06:55:18;;;;;;;7.78;5.07;;;0.20;99.90;;;;;;4999285;28;20432;-74
2023/12/01 06:57:46;;;;;;;8.18;5.80;;;0.20;99.90;;;;;;5015629;28;20456;-74
2023/12/01 07:00:30;;;;;;;6.90;4.85;;;0.20;99.90;;;;;;4999645;28;20076;-74
2023/12/01 07:02:59;;;;;;;7.28;5.22;;;0.20;1.00;;;;;;4996510;28;20461;-74
2023/12/01 07:05:27;;;;;;;7.43;5.50;;;0.30;99.90;;;;;;5012064;28;20140;-74
2023/12/01 07:07:54;;;;;;;8.05;5.15;;;0.20;1.00;;;;;;5012906;28;20052;-73
2023/12/01 07:10:21;;;;;;;8.13;5.30;;;0.30;1.00;;;;;;5013325;28;20088;-74
2023/12/01 07:12:49;;;;;;;8.35;5.60;;;0.30;1.00;;;;;;5016235;28;20076;-73
2023/12/01 07:15:20;;;;;;;8.30;5.90;;;0.30;1.00;;;;;;4994942;28;20045;-74
2023/12/01 07:17:51;;;;;;;9.82;6.72;;;0.30;1.00;;;;;;5016012;28;20045;-73
2023/12/01 07:20:18;;;;;;;8.27;5.75;;;0.30;1.00;;;;;;5015429;28;20069;-74
2023/12/01 07:22:46;;;;;;;7.80;5.20;;;0.40;9.30;;;;;;5000322;28;20144;-75
2023/12/01 07:25:22;;;;;;;7.38;5.38;;;0.40;1.00;;;;;;4984034;28;20500;-74
2023/12/01 07:27:53;;;;;;;8.65;5.95;;;0.50;1.00;;;;;;5019160;28;20134;-73
2023/12/01 07:30:20;;;;;;;9.07;6.28;;;0.40;99.90;;;;;;5016647;28;20091;-73
2023/12/01 07:32:48;;;;;;;7.82;6.00;;;0.40;99.90;;;;;;5012173;28;20519;-73
2023/12/01 07:35:15;;;;;;;8.18;5.30;;;0.40;99.90;;;;;;5018089;28;20046;-74
2023/12/01 07:37:42;;;;;;;8.65;5.97;;;0.50;1.00;;;;;;5019620;28;20728;-74
2023/12/01 07:40:10;;;;;;;7.80;5.05;;;0.50;99.90;;;;;;5017587;28;20052;-73
2023/12/01 07:42:37;;;;;;;7.70;5.72;;;0.50;99.90;;;;;;5016906;28;20037;-75
2023/12/01 07:45:05;;;;;;;5.80;3.65;;;0.60;99.90;;;;;;5016691;28;20088;-75
2023/12/01 07:47:34;;;;;;;4.88;3.78;;;0.60;99.90;;;;;;5029645;28;20140;-75
2023/12/01 07:50:03;;;;;;;6.13;4.13;;;0.60;99.90;;;;;;5011115;28;20179;-75
2023/12/01 07:52:31;;;;;;;7.20;4.60;;;0.60;99.90;;;;;;5019037;28;20234;-75
2023/12/01 07:54:59;;;;;;;8.27;5.65;;;0.60;1.00;;;;;;5016077;28;20054;-73
2023/12/01 07:57:26;;;;;;;7.78;5.13;;;0.60;99.90;;;;;;5001540;28;20057;-75
2023/12/01 07:59:53;;;;;;;6.38;3.80;;;0.60;1.00;;;;;;5017503;28;21268;-73
2023/12/01 08:02:20;;;;;;;5.38;3.50;;;0.70;1.00;;;;;;5018240;28;20046;-73
2023/12/01 08:04:47;;;;;;;4.18;2.67;;;0.70;99.90;;;;;;5014771;28;20054;-73
2023/12/01 08:07:14;;;;;;;4.93;3.15;;;0.70;1.00;;;;;;4997501;28;20073;-73
2023/12/01 08:09:42;;;;;;;4.20;2.83;;;0.80;1.00;;;;;;4998643;28;20107;-73
2023/12/01 08:12:09;;;;;;;8.20;4.45;;;0.80;77.20;;;;;;5014925;28;20045;-73
2023/12/01 08:14:36;;;;;;;6.72;4.93;;;0.80;99.90;;;;;;5011139;28;20053;-73
2023/12/01 08:17:03;;;;;;;6.97;5.03;;;0.80;99.90;;;;;;5015114;28;20136;-73
2023/12/01 08:19:32;;;;;;;7.82;5.38;;;0.80;99.90;;;;;;4995514;28;20479;-74
2023/12/01 08:21:59;;;;;;;7.88;5.78;;;0.80;99.90;;;;;;5012952;28;20082;-74
2023/12/01 08:24:26;;;;;;;7.00;5.38;;;0.80;99.90;;;;;;5013550;28;20052;-73
2023/12/01 08:27:00;;;;;;;6.47;4.05;;;0.80;99.90;;;;;;5013997;28;20042;-74
2023/12/01 08:29:27;;;;;;;6.30;4.25;;;0.90;99.90;;;;;;4998986;28;20049;-73
2023/12/01 08:31:54;;;;;;;6.20;3.78;;;0.90;99.90;;;;;;4980548;28;20407;-73
2023/12/01 08:34:22;;;;;;;4.35;3.20;;;1.00;1.00;;;;;;4991786;28;20779;-74
2023/12/01 08:36:49;;;;;;;4.82;2.95;;;1.00;95.00;;;;;;5011045;28;20520;-75
2023/12/01 08:39:16;;;;;;;5.78;3.80;;;1.00;65.40;;;;;;5007219;28;20060;-74
2023/12/01 08:41:43;;;;;;;5.63;3.90;;;1.10;99.90;;;;;;5007961;28;20522;-74
2023/12/01 08:44:10;;;;;;;5.40;3.72;;;1.00;99.90;;;;;;5011287;28;20172;-74
2023/12/01 08:46:37;;;;;;;6.25;4.07;;;1.10;99.90;;;;;;5007725;28;20049;-75
2023/12/01 08:49:04;;;;;;;5.60;4.07;;;1.00;1.00;;;;;;5015924;28;20510;-75
2023/12/01 08:51:31;;;;;;;7.40;5.75;;;1.00;2.10;;;;;;5016576;28;20581;-75
2023/12/01 08:53:58;;;;;;;6.97;4.45;;;1.00;1.00;;;;;;5014910;28;20057;-74
2023/12/01 08:56:31;;;;;;;5.90;4.18;;;1.10;1.00;;;;;;5014528;28;20545;-74
2023/12/01 08:58:58;;;;;;;6.68;4.35;;;1.10;99.60;;;;;;5015138;28;20817;-84
2023/12/01 09:01:29;;;;;;;5.55;3.88;;;1.10;1.00;;;;;;5011864;28;20053;-79
2023/12/01 09:03:56;;;;;;;5.57;3.63;;;1.20;1.00;;;;;;5014398;28;20099;-76
2023/12/01 09:06:23;;;;;;;5.68;3.45;;;1.20;99.90;;;;;;5015155;28;20099;-76
2023/12/01 09:08:50;;;;;;;4.78;3.20;;;1.20;1.00;;;;;;5009587;28;20052;-76
2023/12/01 09:11:17;;;;;;;5.25;3.65;;;1.30;1.00;;;;;;5012390;28;20060;-76
2023/12/01 09:13:44;;;;;;;5.70;3.47;;;1.30;99.90;;;;;;5011081;28;20099;-75
2023/12/01 09:16:11;;;;;;;6.28;3.88;;;1.30;99.90;;;;;;5014302;28;20502;-76
2023/12/01 09:18:37;;;;;;;4.88;3.40;;;1.30;99.90;;;;;;5014834;28;20604;-75
2023/12/01 09:21:05;;;;;;;4.25;2.50;;;1.40;99.90;;;;;;5013595;28;20053;-77
2023/12/01 09:23:32;;;;;;;5.95;3.55;;;1.40;99.90;;;;;;5018262;28;20376;-76
2023/12/01 09:26:00;;;;;;;4.15;3.20;;;1.40;1.00;;;;;;5010027;28;20064;-78
2023/12/01 09:28:27;;;;;;;6.22;3.55;;;1.40;1.00;;;;;;5013818;28;20502;-76
2023/12/01 09:30:54;;;;;;;6.07;4.38;;;1.40;1.00;;;;;;5008781;28;20875;-76
2023/12/01 09:33:22;;;;;;;6.90;3.58;;;1.40;99.90;;;;;;5014082;28;20061;-76
2023/12/01 09:35:50;;;;;;;5.22;3.60;;;1.40;1.00;;;;;;5010076;28;20057;-76
2023/12/01 09:38:25;;;;;;;5.93;3.92;;;1.40;60.50;;;;;;5011554;28;20508;-76
2023/12/01 09:40:52;;;;;;;5.75;3.55;;;1.50;99.90;;;;;;5011977;28;20053;-76
2023/12/01 09:43:19;;;;;;;6.03;3.45;;;1.50;99.90;;;;;;4997034;28;20053;-75
2023/12/01 09:45:46;;;;;;;5.63;3.58;;;1.50;99.90;;;;;;5010968;28;20135;-74
2023/12/01 09:48:14;;;;;;;5.32;3.10;;;1.50;99.90;;;;;;4996920;28;20045;-75
2023/12/01 09:50:41;;;;;;;4.90;3.30;;;1.60;99.90;;;;;;5013875;28;20046;-75
2023/12/01 09:53:08;;;;;;;5.05;3.22;;;1.70;99.90;;;;;;5009104;28;20049;-78
2023/12/01 09:55:35;;;;;;;5.03;3.55;;;1.70;99.90;;;;;;5012594;28;20037;-77
2023/12/01 09:58:03;;;;;;;5.15;2.70;;;1.70;1.00;;;;;;4999577;28;20061;-76
2023/12/01 10:00:30;;;;;;;5.55;3.30;;;1.70;69.10;;;;;;4999976;28;20075;-74
2023/12/01 10:02:57;;;;;;;5.60;3.63;;;1.70;1.00;;;;;;5013208;28;20049;-77
2023/12/01 10:05:25;;;;;;;4.53;2.92;;;1.70;1.00;;;;;;5010616;28;20149;-77
2023/12/01 10:07:52;;;;;;;4.32;2.97;;;1.70;99.90;;;;;;5009320;28;20061;-76
2023/12/01 10:10:22;;;;;;;3.97;2.42;;;1.70;99.90;;;;;;5014679;28;20057;-75
2023/12/01 10:13:04;;;;;;;4.88;3.13;;;1.80;99.90;;;;;;5014001;28;20148;-76
2023/12/01 10:15:32;;;;;;;2.90;2.13;;;1.80;1.00;;;;;;5015334;28;20054;-75
2023/12/01 10:18:19;;;;;;;3.05;2.45;;;1.90;1.00;;;;;;5019261;28;20793;-75
2023/12/01 10:21:03;;;;;;;3.47;2.08;;;1.90;1.00;;;;;;5020842;28;20045;-75
2023/12/01 10:23:33;;;;;;;3.15;2.05;;;2.00;1.00;;;;;;5020665;28;20467;-86
2023/12/01 10:26:04;;;;;;;2.63;1.80;;;2.10;1.00;;;;;;5016555;28;20061;-73
2023/12/01 10:28:41;;;;;;;4.22;3.05;;;2.10;99.90;;;;;;5003142;28;20489;-73
2023/12/01 10:31:09;;;;;;;3.75;2.40;;;2.20;99.90;;;;;;5014806;28;20041;-73
2023/12/01 10:33:38;;;;;;;4.03;2.38;;;2.20;99.90;;;;;;5024462;28;20054;-73
2023/12/01 10:36:07;;;;;;;3.25;2.22;;;2.20;99.90;;;;;;5023446;28;20049;-73
2023/12/01 10:38:35;;;;;;;3.78;2.47;;;2.20;99.90;;;;;;5007964;28;20056;-73
2023/12/01 10:41:03;;;;;;;3.33;1.73;;;2.20;99.90;;;;;;5006873;28;20057;-73
2023/12/01 10:43:30;;;;;;;3.05;2.17;;;2.30;99.90;;;;;;5022896;28;20132;-73
2023/12/01 10:46:02;;;;;;;2.63;1.60;;;2.30;99.90;;;;;;5023397;28;20049;-73
2023/12/01 10:48:30;;;;;;;2.35;2.00;;;2.30;99.90;;;;;;5023486;28;20056;-73
2023/12/01 10:50:59;;;;;;;2.38;1.73;;;2.30;99.90;;;;;;5023599;28;20133;-73
2023/12/01 10:53:26;;;;;;;3.10;1.98;;;2.40;99.90;;;;;;5023148;28;20397;-73
2023/12/01 10:55:54;;;;;;;3.28;2.33;;;2.40;1.00;;;;;;5005081;28;20087;-73
2023/12/01 10:58:22;;;;;;;4.75;2.85;;;2.40;41.90;;;;;;5025592;28;20435;-73
2023/12/01 11:00:49;;;;;;;4.22;2.83;;;2.40;21.20;;;;;;5027299;28;20065;-73
2023/12/01 11:03:24;;;;;;;4.07;2.83;;;2.40;1.00;;;;;;5027247;28;20163;-73
2023/12/01 11:05:54;;;;;;;4.50;2.90;;;2.40;99.90;;;;;;5035471;28;20042;-73
2023/12/01 11:08:51;;;;;;;3.35;2.13;;;2.40;99.90;;;;;;5025739;28;20107;-72
2023/12/01 11:11:49;;;;;;;2.63;2.20;;;2.40;99.90;;;;;;5023923;28;20256;-73
2023/12/01 11:14:17;;;;;;;5.10;2.75;;;2.40;99.90;;;;;;5033252;28;20486;-75
2023/12/01 11:16:47;;;;;;;3.58;2.58;;;2.50;99.90;;;;;;5023611;28;20091;-73
2023/12/01 11:19:21;;;;;;;2.97;2.10;;;2.60;99.90;;;;;;5011039;28;20055;-73
2023/12/01 11:21:54;;;;;;;2.20;1.73;;;2.60;99.90;;;;;;4997391;28;20052;-73
2023/12/01 11:24:35;;;;;;;3.97;2.50;;;2.70;99.90;;;;;;5014350;28;20079;-73
2023/12/01 11:27:05;;;;;;;2.85;2.10;;;2.70;99.90;;;;;;5022919;28;20048;-73
2023/12/01 11:29:35;;;;;;;7.40;4.03;;;2.80;99.90;;;;;;5023671;28;20061;-73
2023/12/01 11:32:03;;;;;;;5.25;3.60;;;2.80;29.00;;;;;;5003779;28;20049;-73
2023/12/01 11:34:31;;;;;;;5.13;3.22;;;2.80;99.90;;;;;;5008851;28;20689;-73
2023/12/01 11:37:00;;;;;;;5.57;3.72;;;2.70;99.90;;;;;;5008062;28;20378;-74
2023/12/01 11:39:29;;;;;;;5.00;3.53;;;2.70;99.90;;;;;;5021480;28;20060;-73
2023/12/01 11:42:02;;;;;;;6.05;3.67;;;2.60;99.90;;;;;;5015866;28;20123;-75
2023/12/01 11:44:34;;;;;;;4.00;2.63;;;2.60;99.90;;;;;;5021128;28;20068;-74
2023/12/01 11:47:04;;;;;;;4.82;3.45;;;2.60;1.00;;;;;;5022546;28;20081;-75
2023/12/01 11:49:38;;;;;;;4.32;2.65;;;2.50;1.00;;;;;;5018164;28;20041;-75
2023/12/01 11:52:10;;;;;;;3.80;2.63;;;2.60;91.50;;;;;;5023413;28;20115;-74
2023/12/01 11:54:37;;;;;;;4.03;2.45;;;2.60;99.90;;;;;;5032281;28;20054;-75
2023/12/01 11:57:09;;;;;;;4.00;2.72;;;2.70;1.00;;;;;;5008577;28;20073;-74
2023/12/01 11:59:36;;;;;;;4.13;2.85;;;2.70;1.00;;;;;;5019002;28;20048;-75
2023/12/01 12:02:03;;;;;;;4.47;3.38;;;2.80;1.00;;;;;;5015607;28;20053;-75
2023/12/01 12:04:32;;;;;;;3.38;2.50;;;2.90;1.00;;;;;;5018288;28;20579;-74
2023/12/01 12:07:00;;;;;;;3.20;2.25;;;3.00;1.00;;;;;;5003070;28;20152;-72
2023/12/01 12:09:30;;;;;;;6.28;3.00;;;3.10;1.00;;;;;;5018289;28;20049;-72
2023/12/01 12:11:57;;;;;;;5.57;3.42;;;3.20;99.90;;;;;;5018414;28;20041;-80
2023/12/01 12:14:28;;;;;;;4.40;3.33;;;3.20;99.90;;;;;;5018492;28;20057;-75
2023/12/01 12:16:55;;;;;;;7.20;5.15;;;3.20;80.70;;;;;;5001636;28;20060;-73
2023/12/01 12:19:23;;;;;;;6.35;4.28;;;3.10;1.00;;;;;;5016178;28;20061;-75
2023/12/01 12:21:51;;;;;;;4.93;3.42;;;3.10;99.90;;;;;;5012177;28;20087;-74
2023/12/01 12:24:19;;;;;;;4.65;3.75;;;3.10;99.90;;;;;;5017144;28;20049;-73
2023/12/01 12:27:02;;;;;;;5.95;3.83;;;3.10;99.90;;;;;;4998687;28;20430;-81
2023/12/01 12:29:29;;;;;;;4.60;3.60;;;3.00;99.90;;;;;;5002197;28;20103;-75
2023/12/01 12:31:58;;;;;;;4.30;3.20;;;3.10;99.90;;;;;;5017178;28;20533;-75
2023/12/01 12:34:25;;;;;;;4.88;2.92;;;3.10;99.90;;;;;;5016578;28;20123;-76
2023/12/01 12:36:54;;;;;;;3.30;2.53;;;3.10;99.90;;;;;;5016837;28;20129;-75
2023/12/01 12:39:23;;;;;;;3.35;2.28;;;3.20;99.90;;;;;;4994962;28;20158;-75
2023/12/01 12:41:52;;;;;;;4.15;3.03;;;3.30;99.90;;;;;;5016941;28;20060;-76
2023/12/01 12:44:20;;;;;;;4.65;2.78;;;3.30;1.00;;;;;;5012519;28;20046;-75
2023/12/01 12:47:16;;;;;;;4.22;2.88;;;3.30;1.00;;;;;;5007522;28;20096;-77
2023/12/01 12:49:44;;;;;;;5.50;4.05;;;3.40;1.00;;;;;;5009977;28;20133;-77
2023/12/01 12:52:11;;;;;;;5.28;3.75;;;3.40;1.00;;;;;;5013886;28;20250;-77
2023/12/01 12:54:41;;;;;;;4.80;3.53;;;3.40;99.90;;;;;;5016859;28;20041;-76
2023/12/01 12:57:08;;;;;;;4.30;3.58;;;3.40;99.90;;;;;;5012085;28;20124;-76
2023/12/01 12:59:36;;;;;;;5.22;4.05;;;3.60;99.90;;;;;;5016466;28;20184;-76
2023/12/01 13:02:04;;;;;;;10.95;4.32;;;3.80;99.90;;;;;;4979319;28;20132;-76
2023/12/01 13:04:31;;;;;;;5.82;4.30;;;3.80;99.90;;;;;;5011762;28;20053;-76